sensor_id;sensor_type;location;lat;lon;timestamp;temperature;humidity
48575;DHT22;34352;51.084;3.712;2022-07-22T00:01:31;15.80;99.90
48575;DHT22;34352;51.084;3.712;2022-07-22T00:03:57;15.90;99.90
48575;DHT22;34352;51.084;3.712;2022-07-22T00:06:23;15.80;99.90
48575;DHT22;34352;51.084;3.712;2022-07-22T00:08:50;15.80;99.90
48575;DHT22;34352;51.084;3.712;2022-07-22T00:11:17;15.80;99.90
48575;DHT22;34352;51.084;3.712;2022-07-22T00:13:46;15.90;99.90
48575;DHT22;34352;51.084;3.712;2022-07-22T00:16:12;15.80;99.90
48575;DHT22;34352;51.084;3.712;2022-07-22T00:18:38;15.80;99.90
48575;DHT22;34352;51.084;3.712;2022-07-22T00:21:04;16.30;99.90
48575;DHT22;34352;51.084;3.712;2022-07-22T00:23:32;15.70;99.90
48575;DHT22;34352;51.084;3.712;2022-07-22T00:25:57;15.70;99.90
48575;DHT22;34352;51.084;3.712;2022-07-22T00:28:24;15.70;99.90
48575;DHT22;34352;51.084;3.712;2022-07-22T00:30:50;15.80;99.90
48575;DHT22;34352;51.084;3.712;2022-07-22T00:33:16;15.70;99.90
48575;DHT22;34352;51.084;3.712;2022-07-22T00:35:43;15.70;99.90
48575;DHT22;34352;51.084;3.712;2022-07-22T00:38:09;15.70;99.90
48575;DHT22;34352;51.084;3.712;2022-07-22T00:40:34;15.60;99.90
48575;DHT22;34352;51.084;3.712;2022-07-22T00:43:02;15.60;99.90
48575;DHT22;34352;51.084;3.712;2022-07-22T00:45:29;15.60;99.90
48575;DHT22;34352;51.084;3.712;2022-07-22T00:47:55;15.70;99.90
48575;DHT22;34352;51.084;3.712;2022-07-22T00:50:21;15.60;99.90
48575;DHT22;34352;51.084;3.712;2022-07-22T00:52:49;15.50;99.90
48575;DHT22;34352;51.084;3.712;2022-07-22T00:55:16;15.50;99.90
48575;DHT22;34352;51.084;3.712;2022-07-22T00:57:43;16.20;99.90
48575;DHT22;34352;51.084;3.712;2022-07-22T01:00:14;15.50;99.90
48575;DHT22;34352;51.084;3.712;2022-07-22T01:02:43;15.50;99.90
48575;DHT22;34352;51.084;3.712;2022-07-22T01:05:08;15.50;99.90
48575;DHT22;34352;51.084;3.712;2022-07-22T01:07:38;15.50;99.90
48575;DHT22;34352;51.084;3.712;2022-07-22T01:10:05;15.50;99.90
48575;DHT22;34352;51.084;3.712;2022-07-22T01:12:31;15.50;99.90
48575;DHT22;34352;51.084;3.712;2022-07-22T01:14:58;15.50;99.90
48575;DHT22;34352;51.084;3.712;2022-07-22T01:17:24;15.50;99.90
48575;DHT22;34352;51.084;3.712;2022-07-22T01:19:50;15.50;99.90
48575;DHT22;34352;51.084;3.712;2022-07-22T01:22:16;15.50;99.90
48575;DHT22;34352;51.084;3.712;2022-07-22T01:24:43;15.50;99.90
48575;DHT22;34352;51.084;3.712;2022-07-22T01:27:09;15.50;99.90
48575;DHT22;34352;51.084;3.712;2022-07-22T01:29:36;15.50;99.90
48575;DHT22;34352;51.084;3.712;2022-07-22T01:32:03;15.40;99.90
48575;DHT22;34352;51.084;3.712;2022-07-22T01:34:33;15.50;99.90
48575;DHT22;34352;51.084;3.712;2022-07-22T01:37:02;15.40;99.90
48575;DHT22;34352;51.084;3.712;2022-07-22T01:39:28;15.40;99.90
48575;DHT22;34352;51.084;3.712;2022-07-22T01:41:54;15.40;99.90
48575;DHT22;34352;51.084;3.712;2022-07-22T01:44:23;15.40;99.90
48575;DHT22;34352;51.084;3.712;2022-07-22T01:46:51;15.40;99.90
48575;DHT22;34352;51.084;3.712;2022-07-22T01:49:22;15.30;99.90
48575;DHT22;34352;51.084;3.712;2022-07-22T01:51:48;15.30;99.90
48575;DHT22;34352;51.084;3.712;2022-07-22T01:54:15;15.20;99.90
48575;DHT22;34352;51.084;3.712;2022-07-22T01:56:41;15.20;99.90
48575;DHT22;34352;51.084;3.712;2022-07-22T01:59:08;15.20;99.90
48575;DHT22;34352;51.084;3.712;2022-07-22T02:01:34;15.20;99.90
48575;DHT22;34352;51.084;3.712;2022-07-22T02:04:00;15.10;99.90
48575;DHT22;34352;51.084;3.712;2022-07-22T02:06:26;15.20;99.90
48575;DHT22;34352;51.084;3.712;2022-07-22T02:08:52;15.70;99.90
48575;DHT22;34352;51.084;3.712;2022-07-22T02:11:18;15.10;99.90
48575;DHT22;34352;51.084;3.712;2022-07-22T02:13:45;15.00;99.90
48575;DHT22;34352;51.084;3.712;2022-07-22T02:16:11;15.00;99.90
48575;DHT22;34352;51.084;3.712;2022-07-22T02:18:36;15.00;99.90
48575;DHT22;34352;51.084;3.712;2022-07-22T02:21:03;15.00;99.90
48575;DHT22;34352;51.084;3.712;2022-07-22T02:23:30;15.00;99.90
48575;DHT22;34352;51.084;3.712;2022-07-22T02:25:56;15.00;99.90
48575;DHT22;34352;51.084;3.712;2022-07-22T02:28:21;14.90;99.90
48575;DHT22;34352;51.084;3.712;2022-07-22T02:30:47;15.50;99.90
48575;DHT22;34352;51.084;3.712;2022-07-22T02:33:13;15.80;99.90
48575;DHT22;34352;51.084;3.712;2022-07-22T02:35:40;14.90;99.90
48575;DHT22;34352;51.084;3.712;2022-07-22T02:38:06;14.90;99.90
48575;DHT22;34352;51.084;3.712;2022-07-22T02:40:32;15.00;99.90
48575;DHT22;34352;51.084;3.712;2022-07-22T02:43:01;14.90;99.90
48575;DHT22;34352;51.084;3.712;2022-07-22T02:45:28;14.90;99.90
48575;DHT22;34352;51.084;3.712;2022-07-22T02:47:55;14.90;99.90
48575;DHT22;34352;51.084;3.712;2022-07-22T02:50:23;15.30;99.90
48575;DHT22;34352;51.084;3.712;2022-07-22T02:52:49;14.80;99.90
48575;DHT22;34352;51.084;3.712;2022-07-22T02:55:15;14.90;99.90
48575;DHT22;34352;51.084;3.712;2022-07-22T02:57:47;14.80;99.90
48575;DHT22;34352;51.084;3.712;2022-07-22T03:00:13;14.80;99.90
48575;DHT22;34352;51.084;3.712;2022-07-22T03:02:39;14.70;99.90
48575;DHT22;34352;51.084;3.712;2022-07-22T03:05:06;14.70;99.90
48575;DHT22;34352;51.084;3.712;2022-07-22T03:07:33;14.70;99.90
48575;DHT22;34352;51.084;3.712;2022-07-22T03:10:00;14.60;99.90
48575;DHT22;34352;51.084;3.712;2022-07-22T03:12:29;14.60;99.90
48575;DHT22;34352;51.084;3.712;2022-07-22T03:14:55;14.60;99.90
48575;DHT22;34352;51.084;3.712;2022-07-22T03:17:20;14.60;99.90
48575;DHT22;34352;51.084;3.712;2022-07-22T03:19:46;14.60;99.90
48575;DHT22;34352;51.084;3.712;2022-07-22T03:22:12;14.60;99.90
48575;DHT22;34352;51.084;3.712;2022-07-22T03:24:37;14.60;99.90
48575;DHT22;34352;51.084;3.712;2022-07-22T03:27:03;15.20;99.90
48575;DHT22;34352;51.084;3.712;2022-07-22T03:29:31;14.60;99.90
48575;DHT22;34352;51.084;3.712;2022-07-22T03:31:56;14.60;99.90
48575;DHT22;34352;51.084;3.712;2022-07-22T03:34:22;15.10;99.90
48575;DHT22;34352;51.084;3.712;2022-07-22T03:36:49;14.60;99.90
48575;DHT22;34352;51.084;3.712;2022-07-22T03:39:15;14.60;99.90
48575;DHT22;34352;51.084;3.712;2022-07-22T03:41:40;14.60;99.90
48575;DHT22;34352;51.084;3.712;2022-07-22T03:44:09;14.60;99.90
48575;DHT22;34352;51.084;3.712;2022-07-22T03:46:35;14.60;99.90
48575;DHT22;34352;51.084;3.712;2022-07-22T03:49:02;14.60;99.90
48575;DHT22;34352;51.084;3.712;2022-07-22T03:51:29;14.60;99.90
48575;DHT22;34352;51.084;3.712;2022-07-22T03:53:56;14.60;99.90
48575;DHT22;34352;51.084;3.712;2022-07-22T03:56:21;15.00;99.90
48575;DHT22;34352;51.084;3.712;2022-07-22T03:58:47;14.60;99.90
48575;DHT22;34352;51.084;3.712;2022-07-22T04:01:13;14.70;99.90
48575;DHT22;34352;51.084;3.712;2022-07-22T04:03:39;14.70;99.90
48575;DHT22;34352;51.084;3.712;2022-07-22T04:06:05;14.70;99.90
48575;DHT22;34352;51.084;3.712;2022-07-22T04:08:33;14.70;99.90
48575;DHT22;34352;51.084;3.712;2022-07-22T04:10:59;14.80;99.90
48575;DHT22;34352;51.084;3.712;2022-07-22T04:13:27;14.90;99.90
48575;DHT22;34352;51.084;3.712;2022-07-22T04:15:55;15.00;99.90
48575;DHT22;34352;51.084;3.712;2022-07-22T04:18:22;15.10;99.90
48575;DHT22;34352;51.084;3.712;2022-07-22T04:20:48;15.80;99.90
48575;DHT22;34352;51.084;3.712;2022-07-22T04:23:15;15.60;99.90
48575;DHT22;34352;51.084;3.712;2022-07-22T04:25:42;15.20;99.90
48575;DHT22;34352;51.084;3.712;2022-07-22T04:28:08;15.40;99.90
48575;DHT22;34352;51.084;3.712;2022-07-22T04:30:34;15.50;99.90
48575;DHT22;34352;51.084;3.712;2022-07-22T04:33:00;15.60;99.90
48575;DHT22;34352;51.084;3.712;2022-07-22T04:35:27;15.80;99.90
48575;DHT22;34352;51.084;3.712;2022-07-22T04:37:53;15.90;99.90
48575;DHT22;34352;51.084;3.712;2022-07-22T04:40:21;16.00;99.90
48575;DHT22;34352;51.084;3.712;2022-07-22T04:42:46;16.10;99.90
48575;DHT22;34352;51.084;3.712;2022-07-22T04:45:13;16.20;99.90
48575;DHT22;34352;51.084;3.712;2022-07-22T04:47:40;16.20;99.90
48575;DHT22;34352;51.084;3.712;2022-07-22T04:50:06;16.40;99.90
48575;DHT22;34352;51.084;3.712;2022-07-22T04:52:32;16.50;99.90
48575;DHT22;34352;51.084;3.712;2022-07-22T04:54:58;16.70;99.90
48575;DHT22;34352;51.084;3.712;2022-07-22T04:57:25;16.90;99.90
48575;DHT22;34352;51.084;3.712;2022-07-22T04:59:52;17.30;99.90
48575;DHT22;34352;51.084;3.712;2022-07-22T05:02:18;17.70;99.90
48575;DHT22;34352;51.084;3.712;2022-07-22T05:04:44;17.80;99.90
48575;DHT22;34352;51.084;3.712;2022-07-22T05:07:09;18.30;99.90
48575;DHT22;34352;51.084;3.712;2022-07-22T05:09:36;18.80;99.90
48575;DHT22;34352;51.084;3.712;2022-07-22T05:12:03;19.30;99.90
48575;DHT22;34352;51.084;3.712;2022-07-22T05:14:29;19.70;99.90
48575;DHT22;34352;51.084;3.712;2022-07-22T05:16:54;19.70;99.90
48575;DHT22;34352;51.084;3.712;2022-07-22T05:19:21;19.60;99.90
48575;DHT22;34352;51.084;3.712;2022-07-22T05:21:48;19.70;99.90
48575;DHT22;34352;51.084;3.712;2022-07-22T05:24:15;19.60;99.90
48575;DHT22;34352;51.084;3.712;2022-07-22T05:26:41;19.50;99.90
48575;DHT22;34352;51.084;3.712;2022-07-22T05:29:07;19.40;99.90
48575;DHT22;34352;51.084;3.712;2022-07-22T05:31:33;19.30;99.90
48575;DHT22;34352;51.084;3.712;2022-07-22T05:33:58;19.20;99.90
48575;DHT22;34352;51.084;3.712;2022-07-22T05:36:24;19.20;99.90
48575;DHT22;34352;51.084;3.712;2022-07-22T05:38:50;19.20;99.90
48575;DHT22;34352;51.084;3.712;2022-07-22T05:41:19;19.10;99.90
48575;DHT22;34352;51.084;3.712;2022-07-22T05:43:45;18.90;99.90
48575;DHT22;34352;51.084;3.712;2022-07-22T05:46:13;18.90;99.90
48575;DHT22;34352;51.084;3.712;2022-07-22T05:48:41;18.90;99.90
48575;DHT22;34352;51.084;3.712;2022-07-22T05:51:12;18.90;99.90
48575;DHT22;34352;51.084;3.712;2022-07-22T05:53:38;18.90;99.90
48575;DHT22;34352;51.084;3.712;2022-07-22T05:56:04;19.00;99.90
48575;DHT22;34352;51.084;3.712;2022-07-22T05:58:30;19.10;99.90
48575;DHT22;34352;51.084;3.712;2022-07-22T06:00:56;19.10;99.90
48575;DHT22;34352;51.084;3.712;2022-07-22T06:03:23;19.10;99.90
48575;DHT22;34352;51.084;3.712;2022-07-22T06:05:50;19.20;99.90
48575;DHT22;34352;51.084;3.712;2022-07-22T06:08:16;19.30;99.90
48575;DHT22;34352;51.084;3.712;2022-07-22T06:10:42;19.50;99.90
48575;DHT22;34352;51.084;3.712;2022-07-22T06:13:07;19.60;99.90
48575;DHT22;34352;51.084;3.712;2022-07-22T06:15:33;19.50;99.90
48575;DHT22;34352;51.084;3.712;2022-07-22T06:17:58;19.80;99.90
48575;DHT22;34352;51.084;3.712;2022-07-22T06:20:24;19.90;99.90
48575;DHT22;34352;51.084;3.712;2022-07-22T06:22:50;20.10;99.90
48575;DHT22;34352;51.084;3.712;2022-07-22T06:25:16;20.30;99.90
48575;DHT22;34352;51.084;3.712;2022-07-22T06:27:41;20.30;99.90
48575;DHT22;34352;51.084;3.712;2022-07-22T06:30:09;20.40;99.90
48575;DHT22;34352;51.084;3.712;2022-07-22T06:32:35;20.60;99.90
48575;DHT22;34352;51.084;3.712;2022-07-22T06:35:01;21.10;99.90
48575;DHT22;34352;51.084;3.712;2022-07-22T06:37:27;21.10;99.90
48575;DHT22;34352;51.084;3.712;2022-07-22T06:39:53;21.30;99.90
48575;DHT22;34352;51.084;3.712;2022-07-22T06:42:20;21.70;99.90
48575;DHT22;34352;51.084;3.712;2022-07-22T06:44:45;22.10;99.90
48575;DHT22;34352;51.084;3.712;2022-07-22T06:47:12;22.30;99.90
48575;DHT22;34352;51.084;3.712;2022-07-22T06:49:39;22.50;99.90
48575;DHT22;34352;51.084;3.712;2022-07-22T06:52:04;22.60;98.90
48575;DHT22;34352;51.084;3.712;2022-07-22T06:54:30;22.70;99.10
48575;DHT22;34352;51.084;3.712;2022-07-22T06:56:56;23.00;98.10
48575;DHT22;34352;51.084;3.712;2022-07-22T06:59:23;23.90;97.90
48575;DHT22;34352;51.084;3.712;2022-07-22T07:01:49;25.60;96.50
48575;DHT22;34352;51.084;3.712;2022-07-22T07:04:15;25.70;93.10
48575;DHT22;34352;51.084;3.712;2022-07-22T07:06:40;26.80;90.70
48575;DHT22;34352;51.084;3.712;2022-07-22T07:09:06;27.80;89.50
48575;DHT22;34352;51.084;3.712;2022-07-22T07:11:33;27.20;84.70
48575;DHT22;34352;51.084;3.712;2022-07-22T07:13:58;26.90;84.30
48575;DHT22;34352;51.084;3.712;2022-07-22T07:16:24;26.00;84.10
48575;DHT22;34352;51.084;3.712;2022-07-22T07:18:50;25.80;84.80
48575;DHT22;34352;51.084;3.712;2022-07-22T07:21:16;25.50;86.50
48575;DHT22;34352;51.084;3.712;2022-07-22T07:23:41;25.10;86.30
48575;DHT22;34352;51.084;3.712;2022-07-22T07:26:07;25.20;90.00
48575;DHT22;34352;51.084;3.712;2022-07-22T07:28:33;25.10;88.20
48575;DHT22;34352;51.084;3.712;2022-07-22T07:30:59;25.30;86.60
48575;DHT22;34352;51.084;3.712;2022-07-22T07:33:24;24.90;87.50
48575;DHT22;34352;51.084;3.712;2022-07-22T07:35:50;23.60;89.20
48575;DHT22;34352;51.084;3.712;2022-07-22T07:38:16;23.20;90.90
48575;DHT22;34352;51.084;3.712;2022-07-22T07:40:42;22.60;92.00
48575;DHT22;34352;51.084;3.712;2022-07-22T07:43:09;22.30;92.90
48575;DHT22;34352;51.084;3.712;2022-07-22T07:45:35;22.10;93.70
48575;DHT22;34352;51.084;3.712;2022-07-22T07:48:01;21.50;94.10
48575;DHT22;34352;51.084;3.712;2022-07-22T07:50:27;21.40;95.60
48575;DHT22;34352;51.084;3.712;2022-07-22T07:52:53;21.20;95.90
48575;DHT22;34352;51.084;3.712;2022-07-22T07:55:19;21.40;96.20
48575;DHT22;34352;51.084;3.712;2022-07-22T07:57:45;22.30;95.30
48575;DHT22;34352;51.084;3.712;2022-07-22T08:00:15;23.50;93.60
48575;DHT22;34352;51.084;3.712;2022-07-22T08:02:41;24.60;91.80
48575;DHT22;34352;51.084;3.712;2022-07-22T08:05:07;25.20;90.50
48575;DHT22;34352;51.084;3.712;2022-07-22T08:07:33;25.80;86.90
48575;DHT22;34352;51.084;3.712;2022-07-22T08:10:00;26.20;84.60
48575;DHT22;34352;51.084;3.712;2022-07-22T08:12:25;26.70;81.90
48575;DHT22;34352;51.084;3.712;2022-07-22T08:14:51;27.40;83.00
48575;DHT22;34352;51.084;3.712;2022-07-22T08:17:17;27.40;81.10
48575;DHT22;34352;51.084;3.712;2022-07-22T08:19:42;27.10;79.10
48575;DHT22;34352;51.084;3.712;2022-07-22T08:22:08;26.90;80.00
48575;DHT22;34352;51.084;3.712;2022-07-22T08:24:34;26.60;81.60
48575;DHT22;34352;51.084;3.712;2022-07-22T08:27:00;26.50;81.30
48575;DHT22;34352;51.084;3.712;2022-07-22T08:29:27;27.00;80.10
48575;DHT22;34352;51.084;3.712;2022-07-22T08:31:54;26.60;80.00
48575;DHT22;34352;51.084;3.712;2022-07-22T08:34:19;27.00;80.40
48575;DHT22;34352;51.084;3.712;2022-07-22T08:36:45;27.90;81.40
48575;DHT22;34352;51.084;3.712;2022-07-22T08:39:11;27.90;77.80
48575;DHT22;34352;51.084;3.712;2022-07-22T08:41:38;27.40;79.10
48575;DHT22;34352;51.084;3.712;2022-07-22T08:44:06;26.80;79.60
48575;DHT22;34352;51.084;3.712;2022-07-22T08:46:32;26.30;82.90
48575;DHT22;34352;51.084;3.712;2022-07-22T08:48:58;26.40;81.50
48575;DHT22;34352;51.084;3.712;2022-07-22T08:51:27;25.70;82.20
48575;DHT22;34352;51.084;3.712;2022-07-22T08:53:53;25.40;82.70
48575;DHT22;34352;51.084;3.712;2022-07-22T08:56:19;25.10;82.40
48575;DHT22;34352;51.084;3.712;2022-07-22T08:58:44;25.10;83.50
48575;DHT22;34352;51.084;3.712;2022-07-22T09:01:12;25.30;82.30
48575;DHT22;34352;51.084;3.712;2022-07-22T09:03:53;24.90;84.50
48575;DHT22;34352;51.084;3.712;2022-07-22T09:06:22;24.90;83.10
48575;DHT22;34352;51.084;3.712;2022-07-22T09:11:19;25.10;85.00
48575;DHT22;34352;51.084;3.712;2022-07-22T09:13:46;25.50;88.30
48575;DHT22;34352;51.084;3.712;2022-07-22T09:16:13;25.20;82.70
48575;DHT22;34352;51.084;3.712;2022-07-22T09:18:52;25.10;84.70
48575;DHT22;34352;51.084;3.712;2022-07-22T09:21:20;25.50;84.80
48575;DHT22;34352;51.084;3.712;2022-07-22T09:23:47;26.40;85.50
48575;DHT22;34352;51.084;3.712;2022-07-22T09:26:36;26.30;79.60
48575;DHT22;34352;51.084;3.712;2022-07-22T09:29:03;26.30;80.70
48575;DHT22;34352;51.084;3.712;2022-07-22T09:31:32;26.40;81.80
48575;DHT22;34352;51.084;3.712;2022-07-22T09:33:59;26.60;79.70
48575;DHT22;34352;51.084;3.712;2022-07-22T09:36:25;26.80;82.70
48575;DHT22;34352;51.084;3.712;2022-07-22T09:38:51;26.80;80.50
48575;DHT22;34352;51.084;3.712;2022-07-22T09:41:17;27.70;77.60
48575;DHT22;34352;51.084;3.712;2022-07-22T09:43:44;27.90;78.50
48575;DHT22;34352;51.084;3.712;2022-07-22T09:46:10;28.30;79.20
48575;DHT22;34352;51.084;3.712;2022-07-22T09:48:37;28.50;78.20
48575;DHT22;34352;51.084;3.712;2022-07-22T09:51:03;28.60;75.60
48575;DHT22;34352;51.084;3.712;2022-07-22T09:53:31;28.20;77.10
48575;DHT22;34352;51.084;3.712;2022-07-22T09:55:58;28.90;74.30
48575;DHT22;34352;51.084;3.712;2022-07-22T09:58:25;29.30;74.30
48575;DHT22;34352;51.084;3.712;2022-07-22T10:00:51;28.60;76.30
48575;DHT22;34352;51.084;3.712;2022-07-22T10:03:25;28.90;75.30
48575;DHT22;34352;51.084;3.712;2022-07-22T10:05:51;28.10;76.10
48575;DHT22;34352;51.084;3.712;2022-07-22T10:08:18;28.00;76.30
48575;DHT22;34352;51.084;3.712;2022-07-22T10:10:44;27.90;78.10
48575;DHT22;34352;51.084;3.712;2022-07-22T10:13:09;28.40;77.70
48575;DHT22;34352;51.084;3.712;2022-07-22T10:15:37;29.30;75.30
48575;DHT22;34352;51.084;3.712;2022-07-22T10:18:05;29.40;74.20
48575;DHT22;34352;51.084;3.712;2022-07-22T10:20:32;28.60;75.70
48575;DHT22;34352;51.084;3.712;2022-07-22T10:22:59;28.30;74.30
48575;DHT22;34352;51.084;3.712;2022-07-22T10:25:31;28.20;77.10
48575;DHT22;34352;51.084;3.712;2022-07-22T10:28:05;28.00;75.90
48575;DHT22;34352;51.084;3.712;2022-07-22T10:33:16;28.30;75.90
48575;DHT22;34352;51.084;3.712;2022-07-22T10:35:57;28.20;75.20
48575;DHT22;34352;51.084;3.712;2022-07-22T10:38:25;27.60;77.00
48575;DHT22;34352;51.084;3.712;2022-07-22T10:40:54;27.40;77.80
48575;DHT22;34352;51.084;3.712;2022-07-22T10:43:22;27.10;80.00
48575;DHT22;34352;51.084;3.712;2022-07-22T10:46:02;27.20;78.20
48575;DHT22;34352;51.084;3.712;2022-07-22T10:53:57;26.90;79.40
48575;DHT22;34352;51.084;3.712;2022-07-22T10:56:30;27.00;77.70
48575;DHT22;34352;51.084;3.712;2022-07-22T10:59:08;26.20;78.80
48575;DHT22;34352;51.084;3.712;2022-07-22T11:01:35;25.90;81.00
48575;DHT22;34352;51.084;3.712;2022-07-22T11:04:28;26.10;80.80
48575;DHT22;34352;51.084;3.712;2022-07-22T11:06:56;26.40;78.70
48575;DHT22;34352;51.084;3.712;2022-07-22T11:09:31;26.70;80.20
48575;DHT22;34352;51.084;3.712;2022-07-22T11:11:57;26.80;80.80
48575;DHT22;34352;51.084;3.712;2022-07-22T11:14:33;26.90;77.60
48575;DHT22;34352;51.084;3.712;2022-07-22T11:17:05;26.90;81.20
48575;DHT22;34352;51.084;3.712;2022-07-22T11:19:32;27.30;78.20
48575;DHT22;34352;51.084;3.712;2022-07-22T11:22:04;27.50;76.30
48575;DHT22;34352;51.084;3.712;2022-07-22T11:24:30;27.40;77.40
48575;DHT22;34352;51.084;3.712;2022-07-22T11:26:57;26.80;78.60
48575;DHT22;34352;51.084;3.712;2022-07-22T11:29:29;27.00;76.60
48575;DHT22;34352;51.084;3.712;2022-07-22T11:31:57;26.80;77.50
48575;DHT22;34352;51.084;3.712;2022-07-22T11:34:24;26.50;76.80
48575;DHT22;34352;51.084;3.712;2022-07-22T11:36:51;26.50;79.00
48575;DHT22;34352;51.084;3.712;2022-07-22T11:39:24;27.00;79.00
48575;DHT22;34352;51.084;3.712;2022-07-22T11:41:51;27.20;77.70
48575;DHT22;34352;51.084;3.712;2022-07-22T11:44:26;27.40;76.90
48575;DHT22;34352;51.084;3.712;2022-07-22T11:46:52;27.00;78.10
48575;DHT22;34352;51.084;3.712;2022-07-22T11:49:21;26.90;77.50
48575;DHT22;34352;51.084;3.712;2022-07-22T11:51:47;26.90;78.20
48575;DHT22;34352;51.084;3.712;2022-07-22T11:54:13;26.70;77.90
48575;DHT22;34352;51.084;3.712;2022-07-22T11:56:39;26.30;79.20
48575;DHT22;34352;51.084;3.712;2022-07-22T11:59:06;26.50;79.00
48575;DHT22;34352;51.084;3.712;2022-07-22T12:01:36;26.30;78.30
48575;DHT22;34352;51.084;3.712;2022-07-22T12:04:08;26.50;79.50
48575;DHT22;34352;51.084;3.712;2022-07-22T12:06:35;26.50;79.70
48575;DHT22;34352;51.084;3.712;2022-07-22T12:09:10;27.10;81.30
48575;DHT22;34352;51.084;3.712;2022-07-22T12:11:40;27.30;78.00
48575;DHT22;34352;51.084;3.712;2022-07-22T12:14:08;27.00;78.40
48575;DHT22;34352;51.084;3.712;2022-07-22T12:16:36;27.10;77.80
48575;DHT22;34352;51.084;3.712;2022-07-22T12:19:11;27.60;77.20
48575;DHT22;34352;51.084;3.712;2022-07-22T12:24:35;28.30;75.40
48575;DHT22;34352;51.084;3.712;2022-07-22T12:27:13;28.30;76.80
48575;DHT22;34352;51.084;3.712;2022-07-22T12:32:08;27.50;76.70
48575;DHT22;34352;51.084;3.712;2022-07-22T12:34:40;27.40;77.40
48575;DHT22;34352;51.084;3.712;2022-07-22T12:37:24;27.40;77.40
48575;DHT22;34352;51.084;3.712;2022-07-22T12:42:26;28.00;76.50
48575;DHT22;34352;51.084;3.712;2022-07-22T12:45:11;28.50;75.80
48575;DHT22;34352;51.084;3.712;2022-07-22T12:52:58;28.20;79.60
48575;DHT22;34352;51.084;3.712;2022-07-22T12:55:25;28.10;76.50
48575;DHT22;34352;51.084;3.712;2022-07-22T12:57:52;28.00;76.60
48575;DHT22;34352;51.084;3.712;2022-07-22T13:00:22;28.40;78.90
48575;DHT22;34352;51.084;3.712;2022-07-22T13:02:49;29.00;77.80
48575;DHT22;34352;51.084;3.712;2022-07-22T13:05:15;28.80;74.60
48575;DHT22;34352;51.084;3.712;2022-07-22T13:07:42;28.20;77.10
48575;DHT22;34352;51.084;3.712;2022-07-22T13:10:08;28.10;76.00
48575;DHT22;34352;51.084;3.712;2022-07-22T13:12:34;28.20;76.70
48575;DHT22;34352;51.084;3.712;2022-07-22T13:15:03;27.70;75.90
48575;DHT22;34352;51.084;3.712;2022-07-22T13:17:30;27.40;76.80
48575;DHT22;34352;51.084;3.712;2022-07-22T13:19:55;27.50;77.30
48575;DHT22;34352;51.084;3.712;2022-07-22T13:22:21;27.90;78.50
48575;DHT22;34352;51.084;3.712;2022-07-22T13:24:47;28.50;76.40
48575;DHT22;34352;51.084;3.712;2022-07-22T13:27:12;28.70;77.40
48575;DHT22;34352;51.084;3.712;2022-07-22T13:29:38;29.00;78.10
48575;DHT22;34352;51.084;3.712;2022-07-22T13:32:04;29.20;76.60
48575;DHT22;34352;51.084;3.712;2022-07-22T13:34:31;29.10;74.50
48575;DHT22;34352;51.084;3.712;2022-07-22T13:36:56;28.90;75.40
48575;DHT22;34352;51.084;3.712;2022-07-22T13:39:22;28.60;74.50
48575;DHT22;34352;51.084;3.712;2022-07-22T13:41:48;28.00;76.80
48575;DHT22;34352;51.084;3.712;2022-07-22T13:44:14;27.60;76.40
48575;DHT22;34352;51.084;3.712;2022-07-22T13:46:39;27.30;76.90
48575;DHT22;34352;51.084;3.712;2022-07-22T13:49:05;27.50;77.70
48575;DHT22;34352;51.084;3.712;2022-07-22T13:51:31;27.50;77.80
48575;DHT22;34352;51.084;3.712;2022-07-22T13:53:57;27.60;78.80
48575;DHT22;34352;51.084;3.712;2022-07-22T13:56:23;27.90;78.40
48575;DHT22;34352;51.084;3.712;2022-07-22T13:58:50;27.80;76.30
48575;DHT22;34352;51.084;3.712;2022-07-22T14:01:16;27.50;76.60
48575;DHT22;34352;51.084;3.712;2022-07-22T14:03:41;27.10;76.90
48575;DHT22;34352;51.084;3.712;2022-07-22T14:06:07;26.80;77.40
48575;DHT22;34352;51.084;3.712;2022-07-22T14:08:34;26.30;79.10
48575;DHT22;34352;51.084;3.712;2022-07-22T14:11:00;25.90;80.80
48575;DHT22;34352;51.084;3.712;2022-07-22T14:13:26;25.70;80.70
48575;DHT22;34352;51.084;3.712;2022-07-22T14:15:52;25.90;80.80
48575;DHT22;34352;51.084;3.712;2022-07-22T14:18:17;26.20;80.40
48575;DHT22;34352;51.084;3.712;2022-07-22T14:20:43;26.50;81.10
48575;DHT22;34352;51.084;3.712;2022-07-22T14:23:09;26.50;78.50
48575;DHT22;34352;51.084;3.712;2022-07-22T14:25:36;26.70;79.80
48575;DHT22;34352;51.084;3.712;2022-07-22T14:28:03;26.30;79.90
48575;DHT22;34352;51.084;3.712;2022-07-22T14:30:29;26.00;79.50
48575;DHT22;34352;51.084;3.712;2022-07-22T14:32:55;25.90;81.00
48575;DHT22;34352;51.084;3.712;2022-07-22T14:35:21;26.10;81.00
48575;DHT22;34352;51.084;3.712;2022-07-22T14:37:48;25.80;80.20
48575;DHT22;34352;51.084;3.712;2022-07-22T14:40:13;25.50;80.60
48575;DHT22;34352;51.084;3.712;2022-07-22T14:42:39;25.30;81.20
48575;DHT22;34352;51.084;3.712;2022-07-22T14:45:07;24.90;81.40
48575;DHT22;34352;51.084;3.712;2022-07-22T14:47:35;24.70;84.10
48575;DHT22;34352;51.084;3.712;2022-07-22T14:50:05;24.70;83.10
48575;DHT22;34352;51.084;3.712;2022-07-22T14:52:31;24.60;83.40
48575;DHT22;34352;51.084;3.712;2022-07-22T14:54:56;24.40;83.30
48575;DHT22;34352;51.084;3.712;2022-07-22T14:57:23;24.10;83.80
48575;DHT22;34352;51.084;3.712;2022-07-22T14:59:49;24.10;84.10
48575;DHT22;34352;51.084;3.712;2022-07-22T15:02:14;24.00;84.40
48575;DHT22;34352;51.084;3.712;2022-07-22T15:04:40;24.00;84.50
48575;DHT22;34352;51.084;3.712;2022-07-22T15:07:06;24.30;84.80
48575;DHT22;34352;51.084;3.712;2022-07-22T15:09:31;24.50;85.70
48575;DHT22;34352;51.084;3.712;2022-07-22T15:11:57;24.70;84.30
48575;DHT22;34352;51.084;3.712;2022-07-22T15:14:23;24.80;83.20
48575;DHT22;34352;51.084;3.712;2022-07-22T15:16:48;24.90;82.60
48575;DHT22;34352;51.084;3.712;2022-07-22T15:19:14;24.80;82.90
48575;DHT22;34352;51.084;3.712;2022-07-22T15:21:40;24.90;83.60
48575;DHT22;34352;51.084;3.712;2022-07-22T15:24:06;24.90;83.70
48575;DHT22;34352;51.084;3.712;2022-07-22T15:26:32;24.90;83.50
48575;DHT22;34352;51.084;3.712;2022-07-22T15:28:57;24.80;83.90
48575;DHT22;34352;51.084;3.712;2022-07-22T15:31:25;24.70;84.30
48575;DHT22;34352;51.084;3.712;2022-07-22T15:33:53;24.50;85.70
48575;DHT22;34352;51.084;3.712;2022-07-22T15:36:19;24.40;87.10
48575;DHT22;34352;51.084;3.712;2022-07-22T15:38:46;24.40;87.60
48575;DHT22;34352;51.084;3.712;2022-07-22T15:41:11;24.20;87.00
48575;DHT22;34352;51.084;3.712;2022-07-22T15:43:39;24.00;87.20
48575;DHT22;34352;51.084;3.712;2022-07-22T15:46:07;23.90;88.20
48575;DHT22;34352;51.084;3.712;2022-07-22T15:48:33;24.00;88.40
48575;DHT22;34352;51.084;3.712;2022-07-22T15:51:00;24.00;88.70
48575;DHT22;34352;51.084;3.712;2022-07-22T15:53:25;24.00;88.90